Time;durP1;ratioP1;P1;durP2;ratioP2;P2;SDS_P1;SDS_P2;PMS_P1;PMS_P2;Temp;Humidity;BMP_temperature;BMP_pressure;BME280_temperature;BME280_humidity;BME280_pressure;Samples;Min_cycle;Max_cycle;Signal;HPM_P1;HPM_P2
2023/10/04 00:00:23;;;;;;;0.50;0.50;;;;;;;11.35;100.00;97999.91;29394;215;64013;-57
2023/10/04 00:00:55;;;;;;;0.50;0.50;;;;;;;11.35;100.00;98001.81;29395;214;63004;-57
2023/10/04 00:01:26;;;;;;;0.50;0.50;;;;;;;11.30;100.00;98005.34;29395;238;63016;-57
2023/10/04 00:01:57;;;;;;;0.50;0.50;;;;;;;11.31;100.00;97998.81;29395;451;63005;-58
2023/10/04 00:02:30;;;;;;;0.50;0.50;;;;;;;11.32;100.00;97999.62;29395;221;63009;-56
2023/10/04 00:03:01;;;;;;;0.50;0.50;;;;;;;11.33;100.00;98006.72;29395;228;63005;-57
2023/10/04 00:03:32;;;;;;;0.50;0.50;;;;;;;11.31;100.00;98003.44;29395;210;63009;-57
2023/10/04 00:04:05;;;;;;;0.50;0.50;;;;;;;11.30;100.00;98001.81;29395;205;63005;-57
2023/10/04 00:04:38;;;;;;;0.50;0.50;;;;;;;11.30;100.00;98013.50;29395;254;63009;-56
2023/10/04 00:05:10;;;;;;;0.50;0.50;;;;;;;11.32;100.00;98016.75;29395;202;63005;-56
2023/10/04 00:05:42;;;;;;;0.50;0.50;;;;;;;11.28;100.00;98012.94;29394;242;64013;-55
2023/10/04 00:06:13;;;;;;;0.50;0.50;;;;;;;11.27;100.00;98016.75;29395;214;63004;-56
2023/10/04 00:06:45;;;;;;;0.50;0.50;;;;;;;11.26;100.00;98012.41;29395;241;63009;-55
2023/10/04 00:07:17;;;;;;;0.50;0.50;;;;;;;11.25;100.00;98010.75;29395;436;63004;-56
2023/10/04 00:07:50;;;;;;;0.50;0.50;;;;;;;11.24;100.00;98009.13;29395;213;63014;-55
2023/10/04 00:08:23;;;;;;;0.50;0.50;;;;;;;11.23;100.00;98015.66;29395;205;63004;-55
2023/10/04 00:08:55;;;;;;;0.50;0.50;;;;;;;11.22;100.00;98011.31;29395;210;63009;-56
2023/10/04 00:09:27;;;;;;;0.50;0.50;;;;;;;11.22;100.00;98014.03;29395;334;63005;-56
2023/10/04 00:10:04;;;;;;;0.50;0.50;;;;;;;11.21;100.00;98012.37;29395;202;63009;-56
2023/10/04 00:10:35;;;;;;;0.50;0.50;;;;;;;11.19;100.00;98014.56;29395;227;63005;-56
2023/10/04 00:11:06;;;;;;;0.50;0.50;;;;;;;11.22;100.00;98010.50;29394;197;64013;-55
2023/10/04 00:11:38;;;;;;;0.50;0.50;;;;;;;11.22;100.00;98014.03;29395;198;63005;-55
2023/10/04 00:12:09;;;;;;;0.50;0.50;;;;;;;11.23;100.00;98012.13;29395;454;63009;-54
2023/10/04 00:12:42;;;;;;;0.50;0.50;;;;;;;11.22;100.00;98011.31;29395;409;63005;-55
2023/10/04 00:13:13;;;;;;;0.50;0.50;;;;;;;11.22;100.00;98008.59;29395;324;63009;-55
2023/10/04 00:13:46;;;;;;;0.47;0.47;;;;;;;11.20;100.00;98008.03;29395;244;63004;-56
2023/10/04 00:14:18;;;;;;;0.50;0.50;;;;;;;11.18;100.00;98004.78;29395;202;63009;-55
2023/10/04 00:14:49;;;;;;;0.50;0.50;;;;;;;11.17;100.00;98008.56;29395;233;63004;-56
2023/10/04 00:15:22;;;;;;;0.50;0.50;;;;;;;11.18;100.00;98014.81;29395;193;63008;-55
2023/10/04 00:15:53;;;;;;;0.50;0.50;;;;;;;11.17;100.00;98014.00;29395;234;63013;-55
2023/10/04 00:16:26;;;;;;;0.50;0.50;;;;;;;11.18;100.00;98015.62;29394;203;64014;-56
2023/10/04 00:17:00;;;;;;;0.50;0.50;;;;;;;11.20;100.00;98013.47;29395;252;63005;-56
2023/10/04 00:17:31;;;;;;;0.50;0.50;;;;;;;11.18;100.00;98004.78;29395;237;63009;-55
2023/10/04 00:18:04;;;;;;;0.50;0.50;;;;;;;11.18;100.00;98010.22;29394;222;64009;-56
2023/10/04 00:18:36;;;;;;;0.50;0.50;;;;;;;11.18;100.00;98015.62;29395;214;63024;-56
2023/10/04 00:19:09;;;;;;;0.50;0.50;;;;;;;11.18;100.00;98010.22;29394;413;64009;-56
2023/10/04 00:19:41;;;;;;;0.50;0.50;;;;;;;11.16;100.00;98009.66;29395;261;63009;-57
2023/10/04 00:20:16;;;;;;;0.50;0.50;;;;;;;11.18;100.00;98010.22;29394;370;64009;-56
2023/10/04 00:20:48;;;;;;;0.50;0.50;;;;;;;11.18;100.00;98010.22;29395;217;63009;-56
2023/10/04 00:21:19;;;;;;;0.50;0.50;;;;;;;11.18;100.00;98009.38;29395;255;63004;-71
2023/10/04 00:21:51;;;;;;;0.50;0.50;;;;;;;11.15;100.00;98010.75;29395;216;63009;-57
2023/10/04 00:22:23;;;;;;;0.50;0.50;;;;;;;11.17;100.00;98019.44;29395;248;63004;-57
2023/10/04 00:22:54;;;;;;;0.50;0.50;;;;;;;11.18;100.00;98015.62;29395;240;63027;-57
2023/10/04 00:23:25;;;;;;;0.50;0.50;;;;;;;11.19;100.00;98011.03;29395;261;63005;-56
2023/10/04 00:23:57;;;;;;;0.50;0.50;;;;;;;11.21;100.00;98019.72;29395;227;63009;-57
2023/10/04 00:24:31;;;;;;;0.50;0.50;;;;;;;11.22;100.00;98011.31;29395;203;63019;-56
2023/10/04 00:25:05;;;;;;;0.50;0.50;;;;;;;11.25;100.00;98016.19;29394;212;64013;-71
2023/10/04 00:25:37;;;;;;;0.50;0.50;;;;;;;11.25;100.00;98021.63;29395;243;63005;-71
2023/10/04 00:26:10;;;;;;;0.50;0.50;;;;;;;11.22;100.00;98016.75;29395;230;63009;-70
2023/10/04 00:26:42;;;;;;;0.50;0.50;;;;;;;11.21;100.00;98025.97;29395;418;63005;-56
2023/10/04 00:27:17;;;;;;;0.50;0.50;;;;;;;11.22;100.00;98018.63;29395;249;63009;-56
2023/10/04 00:27:56;;;;;;;0.50;0.50;;;;;;;11.22;100.00;98022.16;29395;202;63004;-70
2023/10/04 00:28:29;;;;;;;0.50;0.50;;;;;;;11.18;100.00;98021.06;29395;245;63009;-72
2023/10/04 00:29:00;;;;;;;0.50;0.50;;;;;;;11.18;100.00;98025.69;29395;205;63004;-55
2023/10/04 00:29:31;;;;;;;0.50;0.50;;;;;;;11.19;100.00;98016.47;29395;207;63008;-56
2023/10/04 00:30:05;;;;;;;0.50;0.50;;;;;;;11.21;100.00;98020.53;29394;496;64008;-56
2023/10/04 00:30:37;;;;;;;0.50;0.50;;;;;;;11.24;100.00;98025.44;29395;510;63009;-56
2023/10/04 00:31:08;;;;;;;0.50;0.50;;;;;;;11.25;100.00;98018.91;29395;225;63005;-55
2023/10/04 00:31:39;;;;;;;0.50;0.50;;;;;;;11.24;100.00;98025.44;29395;199;63009;-55
2023/10/04 00:32:12;;;;;;;0.50;0.50;;;;;;;11.21;100.00;98025.97;29395;218;63005;-56
2023/10/04 00:32:46;;;;;;;0.50;0.50;;;;;;;11.21;100.00;98023.25;29395;202;63009;-56
2023/10/04 00:33:19;;;;;;;0.50;0.50;;;;;;;11.23;100.00;98020.28;29395;202;63005;-57
2023/10/04 00:33:50;;;;;;;0.47;0.47;;;;;;;11.22;100.00;98024.88;29395;263;63009;-56
2023/10/04 00:34:23;;;;;;;0.50;0.50;;;;;;;11.22;100.00;98022.16;29395;228;63005;-56
2023/10/04 00:34:54;;;;;;;0.50;0.50;;;;;;;11.20;100.00;98018.91;29395;214;63009;-56
2023/10/04 00:35:25;;;;;;;0.50;0.50;;;;;;;11.17;100.00;98019.44;29394;308;64009;-55
2023/10/04 00:35:57;;;;;;;0.50;0.50;;;;;;;11.18;100.00;98014.81;29395;223;63009;-57
2023/10/04 00:36:29;;;;;;;0.50;0.50;;;;;;;11.18;100.00;98017.53;29395;401;63004;-56
2023/10/04 00:37:00;;;;;;;0.50;0.50;;;;;;;11.21;100.00;98022.44;29395;266;63009;-55
2023/10/04 00:37:31;;;;;;;0.50;0.50;;;;;;;11.23;100.00;98017.56;29395;204;63004;-56
2023/10/04 00:38:05;;;;;;;0.50;0.50;;;;;;;11.24;100.00;98020.00;29395;293;63009;-56
2023/10/04 00:38:37;;;;;;;0.50;0.50;;;;;;;11.25;100.00;98020.81;29394;197;64009;-56
2023/10/04 00:39:13;;;;;;;0.50;0.50;;;;;;;11.21;100.00;98020.53;29395;280;63024;-56
2023/10/04 00:39:45;;;;;;;0.50;0.50;;;;;;;11.21;100.00;98017.00;29395;202;63017;-56
2023/10/04 00:40:23;;;;;;;0.50;0.50;;;;;;;11.20;100.00;98016.19;29395;233;63009;-56
2023/10/04 00:40:54;;;;;;;0.50;0.50;;;;;;;11.20;100.00;98018.91;29395;208;63005;-56
2023/10/04 00:41:25;;;;;;;0.50;0.50;;;;;;;11.21;100.00;98023.25;29395;220;63009;-56
2023/10/04 00:41:57;;;;;;;0.50;0.50;;;;;;;11.21;100.00;98020.53;29395;220;63005;-56
2023/10/04 00:42:28;;;;;;;0.50;0.50;;;;;;;11.16;100.00;98023.25;29395;209;63009;-56
2023/10/04 00:43:01;;;;;;;0.50;0.50;;;;;;;11.18;100.00;98022.97;29395;472;63004;-56
2023/10/04 00:43:34;;;;;;;0.50;0.50;;;;;;;11.15;100.00;98018.06;29395;210;63009;-56
2023/10/04 00:44:07;;;;;;;0.50;0.50;;;;;;;11.13;100.00;98018.34;29394;218;64009;-56
2023/10/04 00:44:39;;;;;;;0.50;0.50;;;;;;;11.12;100.00;98022.16;29395;268;63008;-56
2023/10/04 00:45:13;;;;;;;0.50;0.50;;;;;;;11.13;100.00;98020.25;29395;224;63004;-56
2023/10/04 00:45:48;;;;;;;0.60;0.60;;;;;;;11.12;100.00;98013.19;29395;244;63009;-56
2023/10/04 00:46:20;;;;;;;0.50;0.50;;;;;;;11.11;100.00;98015.06;29395;216;63005;-55
2023/10/04 00:46:52;;;;;;;0.50;0.50;;;;;;;11.12;100.00;98016.72;29395;208;63024;-56
2023/10/04 00:47:23;;;;;;;0.50;0.50;;;;;;;11.13;100.00;98012.91;29395;254;63005;-56
2023/10/04 00:47:58;;;;;;;0.50;0.50;;;;;;;11.13;100.00;98012.91;29394;317;64013;-57
2023/10/04 00:48:34;;;;;;;0.50;0.50;;;;;;;11.16;100.00;98012.37;29395;302;63005;-57
2023/10/04 00:49:06;;;;;;;0.50;0.50;;;;;;;11.13;100.00;98012.91;29395;231;63009;-56
2023/10/04 00:49:37;;;;;;;0.50;0.50;;;;;;;11.12;100.00;98011.28;29395;253;63005;-56
2023/10/04 00:50:18;;;;;;;0.50;0.50;;;;;;;11.13;100.00;98012.09;29395;197;63009;-57
2023/10/04 00:50:49;;;;;;;0.50;0.50;;;;;;;11.13;100.00;98012.91;29439;212;63004;-57
2023/10/04 00:51:22;;;;;;;0.50;0.50;;;;;;;11.15;100.00;98009.94;29394;210;64013;-55
2023/10/04 00:51:54;;;;;;;0.50;0.50;;;;;;;11.16;100.00;98006.94;29395;239;63004;-56
2023/10/04 00:52:25;;;;;;;0.50;0.50;;;;;;;11.15;100.00;98008.03;29395;231;63008;-71
2023/10/04 00:53:13;;;;;;;0.50;0.50;;;;;;;11.14;100.00;98011.81;29395;377;63013;-56
2023/10/04 00:53:44;;;;;;;0.50;0.50;;;;;;;11.14;100.00;98009.09;29395;207;63009;-56
2023/10/04 00:54:16;;;;;;;0.50;0.50;;;;;;;11.14;100.00;98017.25;29395;204;63005;-56
2023/10/04 00:54:49;;;;;;;0.50;0.50;;;;;;;11.12;100.00;98016.72;29395;509;63009;-56
2023/10/04 00:55:21;;;;;;;0.50;0.50;;;;;;;11.12;100.00;98011.28;29395;198;63005;-56
2023/10/04 00:55:54;;;;;;;0.50;0.50;;;;;;;11.14;100.00;98013.72;29395;229;63009;-56
2023/10/04 00:56:26;;;;;;;0.50;0.50;;;;;;;11.15;100.00;98009.94;29394;431;64009;-71
2023/10/04 00:56:58;;;;;;;0.50;0.50;;;;;;;11.15;100.00;98013.47;29395;231;63021;-57
2023/10/04 00:57:30;;;;;;;0.50;0.50;;;;;;;11.15;100.00;98012.63;29395;197;63004;-56
2023/10/04 00:59:06;;;;;;;0.50;0.50;;;;;;;11.12;100.00;98005.84;88182;215;64004;-91
2023/10/04 00:59:37;;;;;;;0.50;0.50;;;;;;;11.13;100.00;98009.38;29394;202;64009;-89
2023/10/04 01:00:11;;;;;;;0.50;0.50;;;;;;;11.13;100.00;98007.47;29395;467;63004;-91
2023/10/04 01:00:45;;;;;;;0.50;0.50;;;;;;;11.14;100.00;97998.25;29395;216;63009;-91
2023/10/04 01:01:19;;;;;;;0.50;0.50;;;;;;;11.15;100.00;98001.78;29394;212;64009;-91
2023/10/04 01:01:51;;;;;;;0.50;0.50;;;;;;;11.16;100.00;98006.13;29395;248;63009;-89
2023/10/04 01:02:22;;;;;;;0.50;0.50;;;;;;;11.16;100.00;98004.22;29395;220;63005;-90
2023/10/04 01:02:53;;;;;;;0.50;0.50;;;;;;;11.18;100.00;97999.34;29395;224;63016;-90
2023/10/04 01:03:30;;;;;;;0.50;0.50;;;;;;;11.19;100.00;98006.41;29395;216;63004;-92
2023/10/04 01:04:05;;;;;;;0.50;0.50;;;;;;;11.20;100.00;98008.03;29395;244;63009;-92
2023/10/04 01:04:38;;;;;;;0.50;0.50;;;;;;;11.25;100.00;97999.91;29394;204;64009;-91
2023/10/04 01:05:11;;;;;;;0.50;0.50;;;;;;;11.28;100.00;97999.38;29395;198;63015;-92
2023/10/04 01:05:47;;;;;;;0.50;0.50;;;;;;;11.26;100.00;98006.16;29395;418;63004;-90
2023/10/04 01:06:19;;;;;;;0.50;0.50;;;;;;;11.28;100.00;98004.78;29395;276;63009;-90
2023/10/04 01:06:51;;;;;;;0.50;0.50;;;;;;;11.30;100.00;97999.91;29395;219;63005;-92
2023/10/04 01:07:22;;;;;;;0.50;0.50;;;;;;;11.30;100.00;97997.19;29395;251;63009;-91
2023/10/04 01:07:54;;;;;;;0.50;0.50;;;;;;;11.28;100.00;97999.38;29395;254;63005;-90
2023/10/04 01:08:38;;;;;;;0.50;0.50;;;;;;;11.30;100.00;98001.81;29395;198;63009;-91
2023/10/04 01:09:11;;;;;;;0.50;0.50;;;;;;;11.32;100.00;98002.34;29395;230;63005;-90
2023/10/04 01:09:44;;;;;;;0.50;0.50;;;;;;;11.32;100.00;97992.31;29394;272;64013;-89
2023/10/04 01:10:20;;;;;;;0.50;0.50;;;;;;;11.34;100.00;97997.47;29395;411;63004;-90
2023/10/04 01:10:55;;;;;;;0.50;0.50;;;;;;;11.34;100.00;97998.28;29395;253;63009;-90
2023/10/04 01:11:32;;;;;;;0.50;0.50;;;;;;;11.35;100.00;97997.19;29395;281;63004;-90
2023/10/04 01:12:04;;;;;;;0.50;0.50;;;;;;;11.34;100.00;97998.28;29395;379;63009;-91
2023/10/04 01:12:36;;;;;;;0.50;0.50;;;;;;;11.32;100.00;98000.44;29395;339;63004;-91
2023/10/04 01:13:09;;;;;;;0.50;0.50;;;;;;;11.31;100.00;98004.25;29395;232;63017;-90
2023/10/04 01:13:41;;;;;;;0.50;0.50;;;;;;;11.32;100.00;98000.44;29395;197;63005;-88
2023/10/04 01:14:25;;;;;;;0.50;0.50;;;;;;;11.34;100.00;98003.72;29395;351;63009;-90
2023/10/04 01:15:07;;;;;;;0.50;0.50;;;;;;;11.32;100.00;97999.62;29394;197;64009;-90
2023/10/04 01:15:39;;;;;;;;;;;;;;;11.30;100.00;97994.47;29996;982;6005;-91
2023/10/04 01:16:11;;;;;;;0.50;0.50;;;;;;;11.25;100.00;97999.91;29399;359;64013;-89
2023/10/04 01:16:43;;;;;;;0.50;0.50;;;;;;;11.27;100.00;97996.91;29394;324;64009;-90
2023/10/04 01:17:15;;;;;;;0.50;0.50;;;;;;;11.25;100.00;97999.91;29395;263;63009;-91
2023/10/04 01:17:46;;;;;;;0.50;0.50;;;;;;;11.26;100.00;98000.72;29395;422;63004;-90
2023/10/04 01:18:19;;;;;;;0.50;0.50;;;;;;;11.24;100.00;97998.25;29395;258;63013;-90
2023/10/04 01:18:50;;;;;;;0.50;0.50;;;;;;;11.24;100.00;97998.25;29395;407;63004;-90
2023/10/04 01:19:22;;;;;;;0.50;0.50;;;;;;;11.24;100.00;97998.25;29395;285;63009;-90
2023/10/04 01:19:54;;;;;;;0.50;0.50;;;;;;;11.24;100.00;97998.25;29395;372;63004;-91
2023/10/04 01:20:33;;;;;;;0.50;0.50;;;;;;;11.25;100.00;97999.09;29395;305;63008;-90
2023/10/04 01:21:07;;;;;;;0.50;0.50;;;;;;;11.22;100.00;97994.19;29395;210;63005;-91
2023/10/04 01:21:38;;;;;;;0.50;0.50;;;;;;;11.26;100.00;98001.53;29394;245;64014;-92
2023/10/04 01:22:11;;;;;;;0.50;0.50;;;;;;;11.25;100.00;97994.47;29395;230;63005;-93
2023/10/04 01:23:47;;;;;;;0.50;0.50;;;;;;;11.18;100.00;98010.22;29395;254;63005;-89
2023/10/04 01:24:19;;;;;;;0.50;0.50;;;;;;;11.19;100.00;98006.41;29394;256;64013;-90
2023/10/04 01:24:53;;;;;;;0.50;0.50;;;;;;;11.19;100.00;98006.41;29395;291;63005;-90
2023/10/04 01:25:28;;;;;;;0.50;0.50;;;;;;;11.17;100.00;97996.87;29395;242;63009;-92
2023/10/04 01:26:00;;;;;;;0.50;0.50;;;;;;;11.15;100.00;98008.03;29395;198;63004;-89
2023/10/04 01:26:32;;;;;;;0.50;0.50;;;;;;;11.13;100.00;98010.19;29394;398;64013;-91
2023/10/04 01:27:04;;;;;;;0.50;0.50;;;;;;;11.13;100.00;98007.47;29395;226;63004;-92
2023/10/04 01:27:38;;;;;;;0.50;0.50;;;;;;;11.14;100.00;98011.81;29395;209;63009;-90
2023/10/04 01:28:13;;;;;;;0.50;0.50;;;;;;;11.16;100.00;98008.84;29395;250;63004;-93
2023/10/04 01:28:46;;;;;;;0.50;0.50;;;;;;;11.14;100.00;98005.56;29395;202;63009;-91
2023/10/04 01:29:18;;;;;;;0.50;0.50;;;;;;;11.14;100.00;98009.09;29395;217;63005;-93
2023/10/04 01:29:49;;;;;;;0.50;0.50;;;;;;;11.13;100.00;98012.09;29395;210;63017;-90
2023/10/04 01:30:21;;;;;;;0.50;0.50;;;;;;;11.11;100.00;98004.22;29395;293;63010;-91
2023/10/04 01:30:52;;;;;;;0.50;0.50;;;;;;;11.09;100.00;98004.47;29395;331;63016;-90
2023/10/04 01:31:25;;;;;;;0.50;0.50;;;;;;;11.10;100.00;98008.00;29395;233;63005;-90
2023/10/04 01:31:57;;;;;;;0.50;0.50;;;;;;;11.11;100.00;98006.13;29394;374;64013;-92
2023/10/04 01:32:28;;;;;;;0.50;0.50;;;;;;;11.09;100.00;98004.47;29395;462;63004;-91
2023/10/04 01:33:04;;;;;;;0.50;0.50;;;;;;;11.06;100.00;97998.78;29395;442;63009;-92
2023/10/04 01:33:37;;;;;;;0.50;0.50;;;;;;;11.07;100.00;98008.56;29395;202;63004;-91
2023/10/04 01:34:13;;;;;;;0.50;0.50;;;;;;;11.07;100.00;98005.88;29395;270;63009;-90
2023/10/04 01:34:46;;;;;;;0.50;0.50;;;;;;;11.07;100.00;97997.72;29395;196;63004;-90
2023/10/04 01:35:24;;;;;;;0.50;0.50;;;;;;;11.06;100.00;98001.50;29395;264;63008;-90
2023/10/04 01:35:56;;;;;;;0.50;0.50;;;;;;;11.05;100.00;97999.88;29395;245;63004;-91
2023/10/04 01:36:32;;;;;;;0.50;0.50;;;;;;;11.02;100.00;97994.97;29394;221;64014;-90
2023/10/04 01:37:04;;;;;;;0.50;0.50;;;;;;;11.03;100.00;97996.63;29395;227;63005;-92
2023/10/04 01:37:39;;;;;;;0.47;0.47;;;;;;;11.02;100.00;97995.81;29395;248;63009;-91
2023/10/04 01:38:11;;;;;;;0.50;0.50;;;;;;;11.03;100.00;97994.72;29395;239;63000;-90
2023/10/04 01:38:43;;;;;;;0.50;0.50;;;;;;;11.06;100.00;98001.50;29395;197;63009;-89
2023/10/04 01:39:20;;;;;;;0.50;0.50;;;;;;;11.05;100.00;97994.44;29395;397;63005;-90
2023/10/04 01:39:54;;;;;;;0.50;0.50;;;;;;;11.05;100.00;97991.72;29394;257;64013;-92
2023/10/04 01:40:35;;;;;;;0.50;0.50;;;;;;;11.07;100.00;97995.00;29395;438;63004;-91
2023/10/04 01:41:07;;;;;;;0.50;0.50;;;;;;;11.08;100.00;97996.63;29394;199;64013;-90
2023/10/04 01:41:39;;;;;;;0.50;0.50;;;;;;;11.08;100.00;98002.06;29395;370;63004;-90
2023/10/04 01:42:11;;;;;;;0.50;0.50;;;;;;;11.08;100.00;97996.63;29395;225;63008;-91
2023/10/04 01:42:45;;;;;;;0.50;0.50;;;;;;;11.08;100.00;97993.91;29395;311;63004;-90
2023/10/04 01:43:32;;;;;;;0.50;0.50;;;;;;;11.07;100.00;98003.16;29395;273;63009;-90
2023/10/04 01:44:09;;;;;;;0.50;0.50;;;;;;;11.07;100.00;98000.44;29395;212;63005;-89
2023/10/04 01:44:41;;;;;;;0.50;0.50;;;;;;;11.06;100.00;97998.78;29394;235;64013;-89
2023/10/04 01:45:19;;;;;;;0.50;0.50;;;;;;;11.10;100.00;98002.56;29394;469;64009;-92
2023/10/04 01:46:03;;;;;;;0.50;0.50;;;;;;;11.11;100.00;98004.22;29395;238;63009;-91
2023/10/04 01:46:36;;;;;;;0.50;0.50;;;;;;;11.10;100.00;98005.28;29395;202;63005;-91
2023/10/04 01:47:08;;;;;;;0.50;0.50;;;;;;;11.09;100.00;98006.38;29395;358;63015;-89
2023/10/04 01:47:39;;;;;;;0.50;0.50;;;;;;;11.07;100.00;98006.69;29395;275;63004;-91
2023/10/04 01:48:14;;;;;;;0.50;0.50;;;;;;;11.07;100.00;98000.44;29395;246;63009;-92
2023/10/04 01:48:48;;;;;;;0.50;0.50;;;;;;;11.08;100.00;97999.34;29395;216;63004;-91
2023/10/04 01:49:19;;;;;;;0.50;0.50;;;;;;;11.08;100.00;98004.78;29395;354;63009;-89
2023/10/04 01:49:51;;;;;;;0.50;0.50;;;;;;;11.08;100.00;98004.78;29395;439;63004;-92
2023/10/04 01:50:24;;;;;;;0.50;0.50;;;;;;;11.09;100.00;98003.66;29394;351;64013;-90
2023/10/04 01:50:57;;;;;;;0.50;0.50;;;;;;;11.10;100.00;98005.28;29395;534;63005;-94
2023/10/04 01:51:29;;;;;;;0.50;0.50;;;;;;;11.15;100.00;97999.88;29394;382;64014;-91
2023/10/04 01:52:02;;;;;;;0.50;0.50;;;;;;;11.21;100.00;98003.41;29395;213;63005;-89
2023/10/04 01:52:35;;;;;;;0.50;0.50;;;;;;;11.23;100.00;97993.91;29395;328;63009;-92
2023/10/04 01:53:06;;;;;;;0.50;0.50;;;;;;;11.24;100.00;97997.44;29395;239;63005;-91
2023/10/04 01:53:37;;;;;;;0.50;0.50;;;;;;;11.24;100.00;97998.25;29395;232;63009;-92
2023/10/04 01:54:12;;;;;;;0.50;0.50;;;;;;;11.22;100.00;97994.19;29395;230;63005;-91
2023/10/04 01:54:44;;;;;;;0.50;0.50;;;;;;;11.21;100.00;97998.81;29395;444;63009;-90
2023/10/04 01:55:22;;;;;;;0.50;0.50;;;;;;;11.20;100.00;98002.59;29395;199;63008;-90
2023/10/04 01:55:54;;;;;;;0.50;0.50;;;;;;;11.19;100.00;98003.69;29395;198;63009;-91
2023/10/04 01:56:26;;;;;;;0.50;0.50;;;;;;;11.20;100.00;98002.59;29394;309;64009;-90
2023/10/04 01:56:58;;;;;;;0.50;0.50;;;;;;;11.20;100.00;97996.34;29395;265;63009;-90
2023/10/04 01:57:30;;;;;;;0.50;0.50;;;;;;;11.24;100.00;98009.13;29395;245;63004;-88
2023/10/04 01:58:04;;;;;;;0.50;0.50;;;;;;;11.26;100.00;98001.53;29395;232;63008;-91
2023/10/04 01:58:37;;;;;;;0.50;0.50;;;;;;;11.27;100.00;97996.91;29395;239;63005;-90
2023/10/04 01:59:08;;;;;;;0.50;0.50;;;;;;;11.26;100.00;98001.53;29395;470;63009;-90
2023/10/04 01:59:39;;;;;;;0.50;0.50;;;;;;;11.27;100.00;98003.16;29395;224;63005;-89
2023/10/04 02:00:18;;;;;;;0.50;0.50;;;;;;;11.29;100.00;98011.87;29395;211;63009;-90
2023/10/04 02:00:51;;;;;;;0.50;0.50;;;;;;;11.39;100.00;97997.47;29395;240;63005;-92
2023/10/04 02:01:22;;;;;;;0.50;0.50;;;;;;;11.33;100.00;98006.72;29395;240;63015;-91
2023/10/04 02:01:57;;;;;;;0.50;0.50;;;;;;;11.31;100.00;98001.53;29394;362;64009;-92
2023/10/04 02:02:29;;;;;;;0.50;0.50;;;;;;;11.35;100.00;98005.34;29395;198;63009;-89
2023/10/04 02:03:02;;;;;;;0.50;0.50;;;;;;;11.38;100.00;98002.09;29395;202;63004;-91
2023/10/04 02:03:34;;;;;;;0.50;0.50;;;;;;;11.40;100.00;97997.22;29395;245;63009;-91
2023/10/04 02:04:06;;;;;;;0.50;0.50;;;;;;;11.41;100.00;98004.28;29395;237;63016;-90
2023/10/04 02:04:37;;;;;;;0.50;0.50;;;;;;;11.40;100.00;98001.81;29395;223;63009;-90
2023/10/04 02:05:10;;;;;;;0.50;0.50;;;;;;;11.40;100.00;97997.22;29395;227;63004;-90
2023/10/04 02:05:42;;;;;;;0.50;0.50;;;;;;;11.41;100.00;97998.03;29395;353;63009;-91
2023/10/04 02:06:14;;;;;;;0.50;0.50;;;;;;;11.41;100.00;98004.28;29395;234;63005;-92
2023/10/04 02:06:46;;;;;;;0.50;0.50;;;;;;;11.43;100.00;97995.84;29395;240;63009;-90
2023/10/04 02:07:17;;;;;;;0.50;0.50;;;;;;;11.44;100.00;97997.44;29394;259;64009;-92
2023/10/04 02:07:49;;;;;;;0.50;0.50;;;;;;;11.44;100.00;98002.88;29395;197;63009;-91
2023/10/04 02:08:20;;;;;;;0.50;0.50;;;;;;;11.40;100.00;97991.78;29394;202;64009;-92
2023/10/04 02:08:51;;;;;;;0.50;0.50;;;;;;;11.40;100.00;97997.22;29395;200;63009;-90
2023/10/04 02:09:22;;;;;;;0.50;0.50;;;;;;;11.43;100.00;98000.47;29395;216;63005;-90
2023/10/04 02:09:54;;;;;;;0.50;0.50;;;;;;;11.41;100.00;97998.84;29395;349;63009;-91
2023/10/04 02:10:26;;;;;;;0.50;0.50;;;;;;;11.41;100.00;98006.19;29395;211;63004;-90
2023/10/04 02:11:03;;;;;;;0.50;0.50;;;;;;;11.41;100.00;98004.28;29395;198;63018;-90
2023/10/04 02:11:36;;;;;;;0.50;0.50;;;;;;;11.47;100.00;98001.53;29395;214;63004;-92
2023/10/04 02:12:09;;;;;;;0.50;0.50;;;;;;;11.47;100.00;98004.25;29395;283;63009;-91
2023/10/04 02:12:42;;;;;;;0.50;0.50;;;;;;;11.46;100.00;98002.63;29395;234;63004;-91
2023/10/04 02:13:17;;;;;;;0.50;0.50;;;;;;;11.45;100.00;98003.69;29395;343;63009;-91
2023/10/04 02:13:50;;;;;;;0.50;0.50;;;;;;;11.45;100.00;98001.00;29394;203;64009;-91
2023/10/04 02:14:22;;;;;;;0.50;0.50;;;;;;;11.38;100.00;97991.22;29395;270;63009;-91
2023/10/04 02:14:54;;;;;;;0.50;0.50;;;;;;;11.43;100.00;98007.50;29395;205;63005;-91
2023/10/04 02:15:29;;;;;;;0.50;0.50;;;;;;;11.46;100.00;97999.91;29395;224;63009;-91
2023/10/04 02:16:05;;;;;;;0.50;0.50;;;;;;;11.50;100.00;98001.00;29395;250;63005;-90
2023/10/04 02:16:39;;;;;;;0.50;0.50;;;;;;;11.52;100.00;98005.06;29395;220;63009;-92
2023/10/04 02:17:15;;;;;;;0.50;0.50;;;;;;;11.52;100.00;97998.81;29395;241;63005;-93
2023/10/04 02:17:49;;;;;;;0.50;0.50;;;;;;;11.51;100.00;98005.34;29394;265;64013;-93
2023/10/04 02:18:22;;;;;;;0.50;0.50;;;;;;;11.49;100.00;98000.19;29395;225;63004;-91
2023/10/04 02:18:56;;;;;;;0.50;0.50;;;;;;;11.51;100.00;98002.63;29395;198;63009;-92
2023/10/04 02:19:28;;;;;;;0.50;0.50;;;;;;;11.53;100.00;98000.44;29395;198;63004;-92
2023/10/04 02:19:59;;;;;;;0.50;0.50;;;;;;;11.57;100.00;97996.91;29395;282;63008;-93
2023/10/04 02:20:34;;;;;;;0.50;0.50;;;;;;;11.55;100.00;98003.72;29395;222;63004;-91
2023/10/04 02:21:07;;;;;;;0.50;0.50;;;;;;;11.54;100.00;98005.63;29395;225;63022;-92
2023/10/04 02:21:38;;;;;;;0.50;0.50;;;;;;;11.55;100.00;98001.81;29395;227;63005;-91
2023/10/04 02:22:12;;;;;;;0.50;0.50;;;;;;;11.55;100.00;97998.28;29395;233;63011;-91
2023/10/04 02:22:43;;;;;;;0.50;0.50;;;;;;;11.56;100.00;97994.47;29395;266;63005;-92
2023/10/04 02:23:19;;;;;;;0.50;0.50;;;;;;;11.57;100.00;98002.34;29394;213;64013;-92
2023/10/04 02:23:55;;;;;;;0.50;0.50;;;;;;;11.55;100.00;98004.53;29395;388;63005;-92
2023/10/04 02:24:28;;;;;;;0.50;0.50;;;;;;;11.56;100.00;98003.44;29394;220;64013;-93
2023/10/04 02:24:59;;;;;;;0.50;0.50;;;;;;;11.57;100.00;98001.53;29395;202;63004;-91
2023/10/04 02:25:32;;;;;;;0.50;0.50;;;;;;;11.53;100.00;98003.16;29395;243;63009;-91
2023/10/04 02:26:09;;;;;;;0.50;0.50;;;;;;;11.51;100.00;97999.91;29395;202;63004;-92
2023/10/04 02:26:44;;;;;;;0.50;0.50;;;;;;;11.56;100.00;98005.34;29395;254;63009;-91
2023/10/04 02:27:27;;;;;;;0.50;0.50;;;;;;;11.58;100.00;98006.72;29395;222;63004;-90
2023/10/04 02:29:04;;;;;;;0.50;0.50;;;;;;;11.54;100.00;98012.97;29395;338;63011;-91
2023/10/04 02:29:38;;;;;;;0.50;0.50;;;;;;;11.55;100.00;98006.44;29394;553;64014;-90
2023/10/04 02:30:15;;;;;;;0.50;0.50;;;;;;;11.53;100.00;98011.31;29395;239;63005;-91
2023/10/04 02:30:47;;;;;;;0.50;0.50;;;;;;;11.51;100.00;98008.06;29395;206;63009;-92
2023/10/04 02:31:20;;;;;;;0.50;0.50;;;;;;;11.52;100.00;98004.25;29395;238;63005;-90
2023/10/04 02:31:52;;;;;;;0.50;0.50;;;;;;;11.52;100.00;98004.25;29395;334;63009;-91
2023/10/04 02:32:26;;;;;;;0.50;0.50;;;;;;;11.52;100.00;98007.78;29395;290;63004;-91
2023/10/04 02:33:00;;;;;;;0.50;0.50;;;;;;;11.52;100.00;98009.69;29395;247;63009;-91
2023/10/04 02:33:32;;;;;;;0.50;0.50;;;;;;;11.52;100.00;98010.50;29395;270;63004;-91
2023/10/04 02:34:05;;;;;;;0.50;0.50;;;;;;;11.51;100.00;98008.88;29395;197;63009;-91
2023/10/04 02:34:41;;;;;;;0.50;0.50;;;;;;;11.51;100.00;98011.59;29394;219;64009;-91
2023/10/04 02:36:07;;;;;;;0.50;0.50;;;;;;;11.48;100.00;98008.59;29416;295;64009;-91
2023/10/04 02:36:39;;;;;;;0.50;0.50;;;;;;;11.48;100.00;98003.16;29395;234;63009;-91
2023/10/04 02:37:11;;;;;;;0.50;0.50;;;;;;;11.49;100.00;98005.59;29395;249;63005;-94
2023/10/04 02:37:42;;;;;;;0.50;0.50;;;;;;;11.51;100.00;98008.06;29395;375;63009;-91
2023/10/04 02:38:19;;;;;;;0.50;0.50;;;;;;;11.50;100.00;98012.69;29395;248;63000;-91
2023/10/04 02:38:51;;;;;;;0.50;0.50;;;;;;;11.49;100.00;98004.78;29395;212;63009;-90
2023/10/04 02:39:24;;;;;;;0.50;0.50;;;;;;;11.49;100.00;98004.78;29395;203;63004;-91
2023/10/04 02:39:57;;;;;;;0.50;0.50;;;;;;;11.49;100.00;98008.31;29395;234;63017;-91
2023/10/04 02:40:32;;;;;;;0.50;0.50;;;;;;;11.49;100.00;98008.31;29395;203;63004;-90